sensor_id;sensor_type;location;lat;lon;timestamp;temperature;humidity
20479;DHT22;10398;52.490;13.434;2023-03-23T00:01:24;13.90;99.90
20479;DHT22;10398;52.490;13.434;2023-03-23T00:03:53;13.90;99.90
20479;DHT22;10398;52.490;13.434;2023-03-23T00:06:23;13.80;99.90
20479;DHT22;10398;52.490;13.434;2023-03-23T00:08:50;13.80;99.90
20479;DHT22;10398;52.490;13.434;2023-03-23T00:11:23;13.80;99.90
20479;DHT22;10398;52.490;13.434;2023-03-23T00:13:52;13.80;99.90
20479;DHT22;10398;52.490;13.434;2023-03-23T00:16:20;13.70;99.90
20479;DHT22;10398;52.490;13.434;2023-03-23T00:18:48;13.70;99.90
20479;DHT22;10398;52.490;13.434;2023-03-23T00:21:21;13.70;99.90
20479;DHT22;10398;52.490;13.434;2023-03-23T00:23:51;13.60;99.90
20479;DHT22;10398;52.490;13.434;2023-03-23T00:26:17;13.70;99.90
20479;DHT22;10398;52.490;13.434;2023-03-23T00:28:44;13.70;99.90
20479;DHT22;10398;52.490;13.434;2023-03-23T00:31:12;13.70;99.90
20479;DHT22;10398;52.490;13.434;2023-03-23T00:33:38;13.70;99.90
20479;DHT22;10398;52.490;13.434;2023-03-23T00:36:07;13.70;99.90
20479;DHT22;10398;52.490;13.434;2023-03-23T00:38:34;13.70;99.90
20479;DHT22;10398;52.490;13.434;2023-03-23T00:41:01;13.70;99.90
20479;DHT22;10398;52.490;13.434;2023-03-23T00:43:30;13.60;99.90
20479;DHT22;10398;52.490;13.434;2023-03-23T00:45:57;13.70;99.90
20479;DHT22;10398;52.490;13.434;2023-03-23T00:48:27;13.70;99.90
20479;DHT22;10398;52.490;13.434;2023-03-23T00:50:53;13.70;99.90
20479;DHT22;10398;52.490;13.434;2023-03-23T00:53:19;13.70;99.90
20479;DHT22;10398;52.490;13.434;2023-03-23T00:55:46;13.60;99.90
20479;DHT22;10398;52.490;13.434;2023-03-23T00:58:14;13.60;99.90
20479;DHT22;10398;52.490;13.434;2023-03-23T01:00:40;13.50;99.90
20479;DHT22;10398;52.490;13.434;2023-03-23T01:03:07;13.40;99.90
20479;DHT22;10398;52.490;13.434;2023-03-23T01:05:37;13.40;99.90
20479;DHT22;10398;52.490;13.434;2023-03-23T01:08:04;13.40;99.90
20479;DHT22;10398;52.490;13.434;2023-03-23T01:10:33;13.40;99.90
20479;DHT22;10398;52.490;13.434;2023-03-23T01:13:00;13.30;99.90
20479;DHT22;10398;52.490;13.434;2023-03-23T01:15:26;13.30;99.90
20479;DHT22;10398;52.490;13.434;2023-03-23T01:17:52;13.20;99.90
20479;DHT22;10398;52.490;13.434;2023-03-23T01:20:18;13.20;99.90
20479;DHT22;10398;52.490;13.434;2023-03-23T01:22:43;13.30;99.90
20479;DHT22;10398;52.490;13.434;2023-03-23T01:25:10;13.20;99.90
20479;DHT22;10398;52.490;13.434;2023-03-23T01:27:37;13.30;99.90
20479;DHT22;10398;52.490;13.434;2023-03-23T01:30:04;13.30;99.90
20479;DHT22;10398;52.490;13.434;2023-03-23T01:32:31;13.20;99.90
20479;DHT22;10398;52.490;13.434;2023-03-23T01:34:57;13.20;99.90
20479;DHT22;10398;52.490;13.434;2023-03-23T01:37:22;13.20;99.90
20479;DHT22;10398;52.490;13.434;2023-03-23T01:39:55;13.20;99.90
20479;DHT22;10398;52.490;13.434;2023-03-23T01:42:31;13.00;99.90
20479;DHT22;10398;52.490;13.434;2023-03-23T01:45:31;13.00;99.90
20479;DHT22;10398;52.490;13.434;2023-03-23T01:48:21;13.00;99.90
20479;DHT22;10398;52.490;13.434;2023-03-23T01:53:20;13.10;99.90
20479;DHT22;10398;52.490;13.434;2023-03-23T01:55:48;13.10;99.90
20479;DHT22;10398;52.490;13.434;2023-03-23T01:58:17;13.10;99.90
20479;DHT22;10398;52.490;13.434;2023-03-23T02:00:45;13.10;99.90
20479;DHT22;10398;52.490;13.434;2023-03-23T02:03:12;13.00;99.90
20479;DHT22;10398;52.490;13.434;2023-03-23T02:05:42;12.90;99.90
20479;DHT22;10398;52.490;13.434;2023-03-23T02:08:10;12.90;99.90
20479;DHT22;10398;52.490;13.434;2023-03-23T02:10:37;12.90;99.90
20479;DHT22;10398;52.490;13.434;2023-03-23T02:13:05;12.90;99.90
20479;DHT22;10398;52.490;13.434;2023-03-23T02:15:48;12.90;99.90
20479;DHT22;10398;52.490;13.434;2023-03-23T02:18:25;12.90;99.90
20479;DHT22;10398;52.490;13.434;2023-03-23T02:31:58;13.00;99.90
20479;DHT22;10398;52.490;13.434;2023-03-23T02:34:44;13.00;99.90
20479;DHT22;10398;52.490;13.434;2023-03-23T02:39:59;13.00;99.90
20479;DHT22;10398;52.490;13.434;2023-03-23T02:42:33;12.90;99.90
20479;DHT22;10398;52.490;13.434;2023-03-23T02:45:03;12.90;99.90
20479;DHT22;10398;52.490;13.434;2023-03-23T02:47:32;12.90;99.90
20479;DHT22;10398;52.490;13.434;2023-03-23T02:49:59;13.00;99.90
20479;DHT22;10398;52.490;13.434;2023-03-23T02:52:30;13.00;99.90
20479;DHT22;10398;52.490;13.434;2023-03-23T02:54:58;13.00;99.90
20479;DHT22;10398;52.490;13.434;2023-03-23T02:57:37;13.00;99.90
20479;DHT22;10398;52.490;13.434;2023-03-23T03:00:08;13.00;99.90
20479;DHT22;10398;52.490;13.434;2023-03-23T03:02:41;13.00;99.90
20479;DHT22;10398;52.490;13.434;2023-03-23T03:05:13;13.00;99.90
20479;DHT22;10398;52.490;13.434;2023-03-23T03:11:14;13.00;99.90
20479;DHT22;10398;52.490;13.434;2023-03-23T03:13:58;13.10;99.90
20479;DHT22;10398;52.490;13.434;2023-03-23T03:18:59;13.10;99.90
20479;DHT22;10398;52.490;13.434;2023-03-23T03:21:28;13.10;99.90
20479;DHT22;10398;52.490;13.434;2023-03-23T03:23:57;13.10;99.90
20479;DHT22;10398;52.490;13.434;2023-03-23T03:26:27;13.20;99.90
20479;DHT22;10398;52.490;13.434;2023-03-23T03:28:54;13.10;99.90
20479;DHT22;10398;52.490;13.434;2023-03-23T03:31:33;13.10;99.90
20479;DHT22;10398;52.490;13.434;2023-03-23T03:34:05;13.20;99.90
20479;DHT22;10398;52.490;13.434;2023-03-23T03:36:33;13.20;99.90
20479;DHT22;10398;52.490;13.434;2023-03-23T03:39:07;13.20;99.90
20479;DHT22;10398;52.490;13.434;2023-03-23T03:41:44;13.20;99.90
20479;DHT22;10398;52.490;13.434;2023-03-23T03:44:10;13.20;99.90
20479;DHT22;10398;52.490;13.434;2023-03-23T03:46:36;13.30;99.90
20479;DHT22;10398;52.490;13.434;2023-03-23T03:49:03;13.30;99.90
20479;DHT22;10398;52.490;13.434;2023-03-23T03:51:30;13.20;99.90
20479;DHT22;10398;52.490;13.434;2023-03-23T03:53:57;13.30;99.90
20479;DHT22;10398;52.490;13.434;2023-03-23T03:56:23;13.30;99.90
20479;DHT22;10398;52.490;13.434;2023-03-23T03:58:49;13.30;99.90
20479;DHT22;10398;52.490;13.434;2023-03-23T04:01:17;13.20;99.90
20479;DHT22;10398;52.490;13.434;2023-03-23T04:03:43;13.30;99.90
20479;DHT22;10398;52.490;13.434;2023-03-23T04:06:12;13.40;99.90
20479;DHT22;10398;52.490;13.434;2023-03-23T04:08:39;13.40;99.90
20479;DHT22;10398;52.490;13.434;2023-03-23T04:11:07;13.40;99.90
20479;DHT22;10398;52.490;13.434;2023-03-23T04:13:33;13.40;99.90
20479;DHT22;10398;52.490;13.434;2023-03-23T04:15:58;13.40;99.90
20479;DHT22;10398;52.490;13.434;2023-03-23T04:18:26;13.40;99.90
20479;DHT22;10398;52.490;13.434;2023-03-23T04:20:52;13.40;99.90
20479;DHT22;10398;52.490;13.434;2023-03-23T04:23:19;13.50;99.90
20479;DHT22;10398;52.490;13.434;2023-03-23T04:25:49;13.40;99.90
20479;DHT22;10398;52.490;13.434;2023-03-23T04:28:16;13.30;99.90
20479;DHT22;10398;52.490;13.434;2023-03-23T04:30:44;13.30;99.90
20479;DHT22;10398;52.490;13.434;2023-03-23T04:33:10;13.40;99.90
20479;DHT22;10398;52.490;13.434;2023-03-23T04:35:41;13.30;99.90
20479;DHT22;10398;52.490;13.434;2023-03-23T04:38:07;13.40;99.90
20479;DHT22;10398;52.490;13.434;2023-03-23T04:40:38;13.50;99.90
20479;DHT22;10398;52.490;13.434;2023-03-23T04:43:04;13.40;99.90
20479;DHT22;10398;52.490;13.434;2023-03-23T04:45:31;13.40;99.90
20479;DHT22;10398;52.490;13.434;2023-03-23T04:47:57;13.50;99.90
20479;DHT22;10398;52.490;13.434;2023-03-23T04:50:26;13.50;99.90
20479;DHT22;10398;52.490;13.434;2023-03-23T04:52:52;13.40;99.90
20479;DHT22;10398;52.490;13.434;2023-03-23T04:55:19;13.40;99.90
20479;DHT22;10398;52.490;13.434;2023-03-23T04:57:46;13.30;99.90
20479;DHT22;10398;52.490;13.434;2023-03-23T05:00:13;13.40;99.90
20479;DHT22;10398;52.490;13.434;2023-03-23T05:02:43;13.30;99.90
20479;DHT22;10398;52.490;13.434;2023-03-23T05:05:11;13.30;99.90
20479;DHT22;10398;52.490;13.434;2023-03-23T05:07:41;13.30;99.90
20479;DHT22;10398;52.490;13.434;2023-03-23T05:10:08;13.40;99.90
20479;DHT22;10398;52.490;13.434;2023-03-23T05:12:40;13.30;99.90
20479;DHT22;10398;52.490;13.434;2023-03-23T05:15:08;13.30;99.90
20479;DHT22;10398;52.490;13.434;2023-03-23T05:17:34;13.20;99.90
20479;DHT22;10398;52.490;13.434;2023-03-23T05:20:01;13.10;99.90
20479;DHT22;10398;52.490;13.434;2023-03-23T05:22:29;13.10;99.90
20479;DHT22;10398;52.490;13.434;2023-03-23T05:24:58;13.10;99.90
20479;DHT22;10398;52.490;13.434;2023-03-23T05:27:24;13.00;99.90
20479;DHT22;10398;52.490;13.434;2023-03-23T05:29:53;13.00;99.90
20479;DHT22;10398;52.490;13.434;2023-03-23T05:32:19;13.00;99.90
20479;DHT22;10398;52.490;13.434;2023-03-23T05:34:45;13.00;99.90
20479;DHT22;10398;52.490;13.434;2023-03-23T05:37:12;13.00;99.90
20479;DHT22;10398;52.490;13.434;2023-03-23T05:39:39;13.00;99.90
20479;DHT22;10398;52.490;13.434;2023-03-23T05:42:05;13.00;99.90
20479;DHT22;10398;52.490;13.434;2023-03-23T05:44:33;13.00;99.90
20479;DHT22;10398;52.490;13.434;2023-03-23T05:46:59;12.90;99.90
20479;DHT22;10398;52.490;13.434;2023-03-23T05:49:24;12.90;99.90
20479;DHT22;10398;52.490;13.434;2023-03-23T05:51:51;12.90;99.90
20479;DHT22;10398;52.490;13.434;2023-03-23T05:54:17;12.90;99.90
20479;DHT22;10398;52.490;13.434;2023-03-23T05:56:43;12.90;99.90
20479;DHT22;10398;52.490;13.434;2023-03-23T05:59:09;12.80;99.90
20479;DHT22;10398;52.490;13.434;2023-03-23T06:01:38;12.80;99.90
20479;DHT22;10398;52.490;13.434;2023-03-23T06:04:04;12.70;99.90
20479;DHT22;10398;52.490;13.434;2023-03-23T06:06:30;12.70;99.90
20479;DHT22;10398;52.490;13.434;2023-03-23T06:08:57;12.50;99.90
20479;DHT22;10398;52.490;13.434;2023-03-23T06:11:24;12.50;99.90
20479;DHT22;10398;52.490;13.434;2023-03-23T06:13:51;12.40;99.90
20479;DHT22;10398;52.490;13.434;2023-03-23T06:16:18;12.40;99.90
20479;DHT22;10398;52.490;13.434;2023-03-23T06:18:57;12.30;99.90
20479;DHT22;10398;52.490;13.434;2023-03-23T06:21:23;12.20;99.90
20479;DHT22;10398;52.490;13.434;2023-03-23T06:23:48;12.10;99.90
20479;DHT22;10398;52.490;13.434;2023-03-23T06:26:15;12.10;99.90
20479;DHT22;10398;52.490;13.434;2023-03-23T06:28:43;12.00;99.90
20479;DHT22;10398;52.490;13.434;2023-03-23T06:31:09;12.00;99.90
20479;DHT22;10398;52.490;13.434;2023-03-23T06:33:38;12.00;99.90
20479;DHT22;10398;52.490;13.434;2023-03-23T06:36:05;12.00;99.90
20479;DHT22;10398;52.490;13.434;2023-03-23T06:38:31;12.00;99.90
20479;DHT22;10398;52.490;13.434;2023-03-23T06:40:58;12.00;99.90
20479;DHT22;10398;52.490;13.434;2023-03-23T06:43:23;12.00;99.90
20479;DHT22;10398;52.490;13.434;2023-03-23T06:45:50;12.00;99.90
20479;DHT22;10398;52.490;13.434;2023-03-23T06:48:16;12.00;99.90
20479;DHT22;10398;52.490;13.434;2023-03-23T06:50:44;12.00;99.90
20479;DHT22;10398;52.490;13.434;2023-03-23T06:53:10;12.10;99.90
20479;DHT22;10398;52.490;13.434;2023-03-23T06:55:37;12.10;99.90
20479;DHT22;10398;52.490;13.434;2023-03-23T06:58:04;12.10;99.90
20479;DHT22;10398;52.490;13.434;2023-03-23T07:00:31;12.10;99.90
20479;DHT22;10398;52.490;13.434;2023-03-23T07:02:57;12.10;99.90
20479;DHT22;10398;52.490;13.434;2023-03-23T07:05:23;12.10;99.90
20479;DHT22;10398;52.490;13.434;2023-03-23T07:07:49;12.10;99.90
20479;DHT22;10398;52.490;13.434;2023-03-23T07:10:15;12.10;99.90
20479;DHT22;10398;52.490;13.434;2023-03-23T07:12:41;12.10;99.90
20479;DHT22;10398;52.490;13.434;2023-03-23T07:15:07;12.10;99.90
20479;DHT22;10398;52.490;13.434;2023-03-23T07:17:36;12.10;99.90
20479;DHT22;10398;52.490;13.434;2023-03-23T07:20:02;12.10;99.90
20479;DHT22;10398;52.490;13.434;2023-03-23T07:22:28;12.10;99.90
20479;DHT22;10398;52.490;13.434;2023-03-23T07:24:54;12.10;99.90
20479;DHT22;10398;52.490;13.434;2023-03-23T07:27:20;12.10;99.90
20479;DHT22;10398;52.490;13.434;2023-03-23T07:29:45;12.10;99.90
20479;DHT22;10398;52.490;13.434;2023-03-23T07:32:12;12.10;99.90
20479;DHT22;10398;52.490;13.434;2023-03-23T07:34:37;12.10;99.90
20479;DHT22;10398;52.490;13.434;2023-03-23T07:37:04;12.10;99.90
20479;DHT22;10398;52.490;13.434;2023-03-23T07:39:30;12.10;99.90
20479;DHT22;10398;52.490;13.434;2023-03-23T07:41:55;12.10;99.90
20479;DHT22;10398;52.490;13.434;2023-03-23T07:44:21;12.10;99.90
20479;DHT22;10398;52.490;13.434;2023-03-23T07:46:47;12.00;99.90
20479;DHT22;10398;52.490;13.434;2023-03-23T07:49:13;12.10;99.90
20479;DHT22;10398;52.490;13.434;2023-03-23T07:51:39;12.10;99.90
20479;DHT22;10398;52.490;13.434;2023-03-23T07:54:06;12.20;99.90
20479;DHT22;10398;52.490;13.434;2023-03-23T07:56:35;12.20;99.90
20479;DHT22;10398;52.490;13.434;2023-03-23T07:59:02;12.30;99.90
20479;DHT22;10398;52.490;13.434;2023-03-23T08:01:28;12.30;99.90
20479;DHT22;10398;52.490;13.434;2023-03-23T08:03:54;12.20;99.90
20479;DHT22;10398;52.490;13.434;2023-03-23T08:06:23;12.10;99.90
20479;DHT22;10398;52.490;13.434;2023-03-23T08:08:49;12.10;99.90
20479;DHT22;10398;52.490;13.434;2023-03-23T08:11:15;12.10;99.90
20479;DHT22;10398;52.490;13.434;2023-03-23T08:13:44;12.20;99.90
20479;DHT22;10398;52.490;13.434;2023-03-23T08:16:10;12.30;99.90
20479;DHT22;10398;52.490;13.434;2023-03-23T08:18:36;12.30;99.90
20479;DHT22;10398;52.490;13.434;2023-03-23T08:21:04;12.40;99.90
20479;DHT22;10398;52.490;13.434;2023-03-23T08:23:39;12.40;99.90
20479;DHT22;10398;52.490;13.434;2023-03-23T08:26:06;12.40;99.90
20479;DHT22;10398;52.490;13.434;2023-03-23T08:28:33;12.50;99.90
20479;DHT22;10398;52.490;13.434;2023-03-23T08:30:59;12.50;99.90
20479;DHT22;10398;52.490;13.434;2023-03-23T08:33:25;12.50;99.90
20479;DHT22;10398;52.490;13.434;2023-03-23T08:36:00;12.50;99.90
20479;DHT22;10398;52.490;13.434;2023-03-23T08:38:26;12.40;99.90
20479;DHT22;10398;52.490;13.434;2023-03-23T08:40:58;12.40;99.90
20479;DHT22;10398;52.490;13.434;2023-03-23T08:43:24;12.40;99.90
20479;DHT22;10398;52.490;13.434;2023-03-23T08:45:50;12.40;99.90
20479;DHT22;10398;52.490;13.434;2023-03-23T08:48:17;12.50;99.90
20479;DHT22;10398;52.490;13.434;2023-03-23T08:50:43;12.50;99.90
20479;DHT22;10398;52.490;13.434;2023-03-23T08:53:09;12.50;99.90
20479;DHT22;10398;52.490;13.434;2023-03-23T08:55:35;12.60;99.90
20479;DHT22;10398;52.490;13.434;2023-03-23T08:58:01;12.80;99.90
20479;DHT22;10398;52.490;13.434;2023-03-23T09:00:27;12.90;99.90
20479;DHT22;10398;52.490;13.434;2023-03-23T09:02:53;12.90;99.90
20479;DHT22;10398;52.490;13.434;2023-03-23T09:05:22;13.00;99.90
20479;DHT22;10398;52.490;13.434;2023-03-23T09:07:51;13.10;99.90
20479;DHT22;10398;52.490;13.434;2023-03-23T09:10:17;13.20;99.90
20479;DHT22;10398;52.490;13.434;2023-03-23T09:12:44;13.20;99.90
20479;DHT22;10398;52.490;13.434;2023-03-23T09:15:12;13.10;99.90
20479;DHT22;10398;52.490;13.434;2023-03-23T09:17:41;13.10;99.90
20479;DHT22;10398;52.490;13.434;2023-03-23T09:20:09;13.20;99.90
20479;DHT22;10398;52.490;13.434;2023-03-23T09:22:39;13.10;99.90
20479;DHT22;10398;52.490;13.434;2023-03-23T09:25:10;13.20;99.90
20479;DHT22;10398;52.490;13.434;2023-03-23T09:27:37;13.10;99.90
20479;DHT22;10398;52.490;13.434;2023-03-23T09:30:09;13.20;99.90
20479;DHT22;10398;52.490;13.434;2023-03-23T09:32:36;13.30;99.90
20479;DHT22;10398;52.490;13.434;2023-03-23T09:35:04;13.40;99.90
20479;DHT22;10398;52.490;13.434;2023-03-23T09:37:32;13.40;99.90
20479;DHT22;10398;52.490;13.434;2023-03-23T09:39:58;13.40;99.90
20479;DHT22;10398;52.490;13.434;2023-03-23T09:42:48;13.40;99.90
20479;DHT22;10398;52.490;13.434;2023-03-23T09:47:49;13.80;99.90
20479;DHT22;10398;52.490;13.434;2023-03-23T09:50:21;13.90;99.90
20479;DHT22;10398;52.490;13.434;2023-03-23T09:55:16;14.10;99.90
20479;DHT22;10398;52.490;13.434;2023-03-23T09:57:52;14.20;99.90
20479;DHT22;10398;52.490;13.434;2023-03-23T10:00:36;14.30;99.90
20479;DHT22;10398;52.490;13.434;2023-03-23T10:03:14;14.30;99.90
20479;DHT22;10398;52.490;13.434;2023-03-23T10:05:52;14.50;99.90
20479;DHT22;10398;52.490;13.434;2023-03-23T10:08:21;14.40;99.90
20479;DHT22;10398;52.490;13.434;2023-03-23T10:16:07;14.50;99.90
20479;DHT22;10398;52.490;13.434;2023-03-23T10:19:11;14.50;99.90
20479;DHT22;10398;52.490;13.434;2023-03-23T10:21:52;14.50;99.90
20479;DHT22;10398;52.490;13.434;2023-03-23T10:25:06;14.50;99.90
20479;DHT22;10398;52.490;13.434;2023-03-23T10:29:52;14.30;99.90
20479;DHT22;10398;52.490;13.434;2023-03-23T10:32:36;14.30;99.90
20479;DHT22;10398;52.490;13.434;2023-03-23T10:35:06;14.30;99.90
20479;DHT22;10398;52.490;13.434;2023-03-23T10:37:37;14.40;99.90
20479;DHT22;10398;52.490;13.434;2023-03-23T10:40:11;14.50;99.90
20479;DHT22;10398;52.490;13.434;2023-03-23T10:42:40;14.40;99.90
20479;DHT22;10398;52.490;13.434;2023-03-23T10:45:27;14.50;99.90
20479;DHT22;10398;52.490;13.434;2023-03-23T10:48:13;14.60;99.90
20479;DHT22;10398;52.490;13.434;2023-03-23T10:50:41;14.60;99.90
20479;DHT22;10398;52.490;13.434;2023-03-23T10:53:21;14.60;99.90
20479;DHT22;10398;52.490;13.434;2023-03-23T10:55:49;14.60;99.90
20479;DHT22;10398;52.490;13.434;2023-03-23T10:58:34;14.50;99.90
20479;DHT22;10398;52.490;13.434;2023-03-23T11:01:04;14.50;99.90
20479;DHT22;10398;52.490;13.434;2023-03-23T11:06:22;14.40;99.90
20479;DHT22;10398;52.490;13.434;2023-03-23T11:08:55;14.40;99.90
20479;DHT22;10398;52.490;13.434;2023-03-23T11:11:30;14.40;99.90
20479;DHT22;10398;52.490;13.434;2023-03-23T11:14:20;14.50;99.90
20479;DHT22;10398;52.490;13.434;2023-03-23T11:16:52;14.40;99.90
20479;DHT22;10398;52.490;13.434;2023-03-23T11:19:35;14.50;99.90
20479;DHT22;10398;52.490;13.434;2023-03-23T11:24:33;14.60;99.90
20479;DHT22;10398;52.490;13.434;2023-03-23T11:26:59;14.60;99.90
20479;DHT22;10398;52.490;13.434;2023-03-23T11:29:27;14.60;99.90
20479;DHT22;10398;52.490;13.434;2023-03-23T11:37:04;14.70;99.90
20479;DHT22;10398;52.490;13.434;2023-03-23T11:39:34;14.80;99.90
20479;DHT22;10398;52.490;13.434;2023-03-23T11:42:13;14.80;99.90
20479;DHT22;10398;52.490;13.434;2023-03-23T11:44:43;14.80;99.90
20479;DHT22;10398;52.490;13.434;2023-03-23T11:47:40;14.90;99.90
20479;DHT22;10398;52.490;13.434;2023-03-23T11:50:20;14.90;99.90
20479;DHT22;10398;52.490;13.434;2023-03-23T11:52:52;15.00;99.90
20479;DHT22;10398;52.490;13.434;2023-03-23T11:55:23;15.10;99.90
20479;DHT22;10398;52.490;13.434;2023-03-23T11:57:52;15.10;99.90
20479;DHT22;10398;52.490;13.434;2023-03-23T12:00:22;15.20;99.90
20479;DHT22;10398;52.490;13.434;2023-03-23T12:03:09;15.20;99.90
20479;DHT22;10398;52.490;13.434;2023-03-23T12:06:10;15.20;99.90
20479;DHT22;10398;52.490;13.434;2023-03-23T12:09:16;15.30;99.90
20479;DHT22;10398;52.490;13.434;2023-03-23T12:12:52;15.30;99.90
20479;DHT22;10398;52.490;13.434;2023-03-23T12:14:56;15.30;99.90
20479;DHT22;10398;52.490;13.434;2023-03-23T12:17:49;15.30;99.90
20479;DHT22;10398;52.490;13.434;2023-03-23T12:23:25;15.40;99.90
20479;DHT22;10398;52.490;13.434;2023-03-23T12:31:06;15.50;99.90
20479;DHT22;10398;52.490;13.434;2023-03-23T12:36:24;15.40;99.90
20479;DHT22;10398;52.490;13.434;2023-03-23T12:44:35;15.40;99.90
20479;DHT22;10398;52.490;13.434;2023-03-23T12:50:45;15.60;99.90
20479;DHT22;10398;52.490;13.434;2023-03-23T12:58:19;15.60;99.90
20479;DHT22;10398;52.490;13.434;2023-03-23T13:01:11;15.70;99.90
20479;DHT22;10398;52.490;13.434;2023-03-23T13:04:21;15.70;99.90
20479;DHT22;10398;52.490;13.434;2023-03-23T13:06:47;15.90;99.90
20479;DHT22;10398;52.490;13.434;2023-03-23T13:09:46;16.00;99.90
20479;DHT22;10398;52.490;13.434;2023-03-23T13:12:14;16.20;99.90
20479;DHT22;10398;52.490;13.434;2023-03-23T13:15:19;16.30;99.90
20479;DHT22;10398;52.490;13.434;2023-03-23T13:23:36;17.10;99.90
20479;DHT22;10398;52.490;13.434;2023-03-23T13:31:16;17.30;99.90
20479;DHT22;10398;52.490;13.434;2023-03-23T13:33:49;17.40;99.90
20479;DHT22;10398;52.490;13.434;2023-03-23T13:36:30;17.40;99.90
20479;DHT22;10398;52.490;13.434;2023-03-23T13:38:58;17.30;99.90
20479;DHT22;10398;52.490;13.434;2023-03-23T13:41:25;17.50;99.90
20479;DHT22;10398;52.490;13.434;2023-03-23T13:43:53;17.60;99.90
20479;DHT22;10398;52.490;13.434;2023-03-23T13:46:30;17.70;99.90
20479;DHT22;10398;52.490;13.434;2023-03-23T13:49:18;17.80;99.90
20479;DHT22;10398;52.490;13.434;2023-03-23T13:57:01;17.70;99.90
20479;DHT22;10398;52.490;13.434;2023-03-23T14:01:54;17.90;99.90
20479;DHT22;10398;52.490;13.434;2023-03-23T14:04:22;17.90;99.90
20479;DHT22;10398;52.490;13.434;2023-03-23T14:06:50;17.90;99.90
20479;DHT22;10398;52.490;13.434;2023-03-23T14:09:23;17.80;99.90
20479;DHT22;10398;52.490;13.434;2023-03-23T14:12:01;17.80;99.90
20479;DHT22;10398;52.490;13.434;2023-03-23T14:14:41;17.60;99.90
20479;DHT22;10398;52.490;13.434;2023-03-23T14:17:21;17.50;99.90
20479;DHT22;10398;52.490;13.434;2023-03-23T14:19:50;17.70;99.90
20479;DHT22;10398;52.490;13.434;2023-03-23T14:22:24;17.70;99.90
20479;DHT22;10398;52.490;13.434;2023-03-23T14:24:50;17.50;99.90
20479;DHT22;10398;52.490;13.434;2023-03-23T14:27:19;17.30;99.90
20479;DHT22;10398;52.490;13.434;2023-03-23T14:29:46;17.30;99.90
20479;DHT22;10398;52.490;13.434;2023-03-23T14:32:23;17.30;99.90
20479;DHT22;10398;52.490;13.434;2023-03-23T14:34:52;17.20;99.90
20479;DHT22;10398;52.490;13.434;2023-03-23T14:37:18;17.10;99.90
20479;DHT22;10398;52.490;13.434;2023-03-23T14:39:46;16.80;99.90
20479;DHT22;10398;52.490;13.434;2023-03-23T14:42:20;16.80;99.90
20479;DHT22;10398;52.490;13.434;2023-03-23T14:44:48;16.80;99.90
20479;DHT22;10398;52.490;13.434;2023-03-23T14:47:45;16.70;99.90
20479;DHT22;10398;52.490;13.434;2023-03-23T14:50:51;16.60;99.90
20479;DHT22;10398;52.490;13.434;2023-03-23T14:53:23;16.50;99.90
20479;DHT22;10398;52.490;13.434;2023-03-23T14:55:51;16.50;99.90
20479;DHT22;10398;52.490;13.434;2023-03-23T14:58:20;16.40;99.90
20479;DHT22;10398;52.490;13.434;2023-03-23T15:01:00;16.40;99.90
20479;DHT22;10398;52.490;13.434;2023-03-23T15:03:47;16.40;99.90
20479;DHT22;10398;52.490;13.434;2023-03-23T15:06:17;16.30;99.90
20479;DHT22;10398;52.490;13.434;2023-03-23T15:08:45;16.30;99.90
20479;DHT22;10398;52.490;13.434;2023-03-23T15:13:46;16.80;99.90
20479;DHT22;10398;52.490;13.434;2023-03-23T15:16:33;16.80;99.90
20479;DHT22;10398;52.490;13.434;2023-03-23T15:21:35;16.90;99.90
20479;DHT22;10398;52.490;13.434;2023-03-23T15:24:02;16.90;99.90
20479;DHT22;10398;52.490;13.434;2023-03-23T15:26:41;17.10;99.90
20479;DHT22;10398;52.490;13.434;2023-03-23T15:31:34;17.50;99.90
20479;DHT22;10398;52.490;13.434;2023-03-23T15:34:03;17.70;99.90
20479;DHT22;10398;52.490;13.434;2023-03-23T15:36:32;17.70;99.90
20479;DHT22;10398;52.490;13.434;2023-03-23T15:38:59;17.60;99.90
20479;DHT22;10398;52.490;13.434;2023-03-23T15:41:30;17.70;99.90
20479;DHT22;10398;52.490;13.434;2023-03-23T15:44:10;17.80;99.90
20479;DHT22;10398;52.490;13.434;2023-03-23T15:46:36;17.70;99.90
20479;DHT22;10398;52.490;13.434;2023-03-23T15:49:12;17.70;99.90
20479;DHT22;10398;52.490;13.434;2023-03-23T15:51:41;17.50;99.90
20479;DHT22;10398;52.490;13.434;2023-03-23T15:54:12;17.40;99.90
20479;DHT22;10398;52.490;13.434;2023-03-23T15:56:39;17.20;99.90
20479;DHT22;10398;52.490;13.434;2023-03-23T15:59:04;17.10;99.90
20479;DHT22;10398;52.490;13.434;2023-03-23T16:01:30;17.10;99.90
20479;DHT22;10398;52.490;13.434;2023-03-23T16:06:32;16.90;99.90
20479;DHT22;10398;52.490;13.434;2023-03-23T16:08:58;16.80;99.90
20479;DHT22;10398;52.490;13.434;2023-03-23T16:11:27;16.70;99.90
20479;DHT22;10398;52.490;13.434;2023-03-23T16:13:54;16.70;99.90
20479;DHT22;10398;52.490;13.434;2023-03-23T16:16:21;16.60;99.90
20479;DHT22;10398;52.490;13.434;2023-03-23T16:18:47;16.60;99.90
20479;DHT22;10398;52.490;13.434;2023-03-23T16:21:13;16.60;99.90
20479;DHT22;10398;52.490;13.434;2023-03-23T16:23:39;16.60;99.90
20479;DHT22;10398;52.490;13.434;2023-03-23T16:26:05;16.60;99.90
20479;DHT22;10398;52.490;13.434;2023-03-23T16:28:31;16.50;99.90
20479;DHT22;10398;52.490;13.434;2023-03-23T16:30:57;16.50;99.90
20479;DHT22;10398;52.490;13.434;2023-03-23T16:33:22;16.50;99.90
20479;DHT22;10398;52.490;13.434;2023-03-23T16:35:48;16.50;99.90
20479;DHT22;10398;52.490;13.434;2023-03-23T16:38:15;16.50;99.90
20479;DHT22;10398;52.490;13.434;2023-03-23T16:40:46;16.50;99.90
20479;DHT22;10398;52.490;13.434;2023-03-23T16:43:12;16.50;99.90
20479;DHT22;10398;52.490;13.434;2023-03-23T16:45:39;16.60;99.90
20479;DHT22;10398;52.490;13.434;2023-03-23T16:48:06;16.60;99.90
20479;DHT22;10398;52.490;13.434;2023-03-23T16:50:33;16.60;99.90
20479;DHT22;10398;52.490;13.434;2023-03-23T16:52:59;16.50;99.90
20479;DHT22;10398;52.490;13.434;2023-03-23T16:55:25;16.50;99.90
20479;DHT22;10398;52.490;13.434;2023-03-23T16:57:52;16.50;99.90
20479;DHT22;10398;52.490;13.434;2023-03-23T17:00:18;16.50;99.90
20479;DHT22;10398;52.490;13.434;2023-03-23T17:02:46;16.40;99.90
20479;DHT22;10398;52.490;13.434;2023-03-23T17:05:12;16.50;99.90
20479;DHT22;10398;52.490;13.434;2023-03-23T17:07:39;16.50;99.90
20479;DHT22;10398;52.490;13.434;2023-03-23T17:10:07;16.50;99.90
20479;DHT22;10398;52.490;13.434;2023-03-23T17:12:33;16.50;99.90
20479;DHT22;10398;52.490;13.434;2023-03-23T17:14:59;16.40;99.90